createdAt,value
2017-03-03T00:00:25.317Z,0
2017-03-03T00:01:25.304Z,0
2017-03-03T00:02:25.665Z,0
2017-03-03T00:03:25.262Z,0
2017-03-03T00:04:25.257Z,0
2017-03-03T00:05:25.221Z,0
2017-03-03T00:06:25.207Z,0
2017-03-03T00:07:25.195Z,0
2017-03-03T00:08:25.154Z,0
2017-03-03T00:09:25.144Z,0
2017-03-03T00:10:25.154Z,0
2017-03-03T00:11:25.135Z,0
2017-03-03T00:12:25.096Z,0
2017-03-03T00:13:25.105Z,0
2017-03-03T00:14:25.442Z,0
2017-03-03T00:15:25.419Z,0
2017-03-03T00:16:25.412Z,0
2017-03-03T00:17:25.418Z,0
2017-03-03T00:18:25.362Z,0
2017-03-03T00:19:25.346Z,0
2017-03-03T00:20:25.337Z,0
2017-03-03T00:21:25.318Z,0
2017-03-03T00:22:25.289Z,0
2017-03-03T00:23:25.257Z,0
2017-03-03T00:24:24.843Z,0
2017-03-03T00:25:25.251Z,0
2017-03-03T00:26:25.209Z,0
2017-03-03T00:27:25.197Z,0
2017-03-03T00:28:25.168Z,0
2017-03-03T00:29:24.762Z,0
2017-03-03T00:30:25.133Z,0
2017-03-03T00:31:25.099Z,0
2017-03-03T00:32:24.690Z,0
2017-03-03T00:33:25.064Z,0
2017-03-03T00:34:25.070Z,0
2017-03-03T00:35:24.640Z,0
2017-03-03T00:36:25.002Z,0
2017-03-03T00:37:24.983Z,0
2017-03-03T00:38:24.625Z,0
2017-03-03T00:39:24.955Z,0
2017-03-03T00:40:24.527Z,0
2017-03-03T00:41:24.504Z,0
2017-03-03T00:42:24.900Z,0
2017-03-03T00:43:24.859Z,0
2017-03-03T00:44:24.856Z,0
2017-03-03T00:45:24.841Z,0
2017-03-03T00:46:24.402Z,0
2017-03-03T00:47:24.784Z,0
2017-03-03T00:48:24.783Z,0
2017-03-03T00:49:24.744Z,0
2017-03-03T00:50:24.744Z,0
2017-03-03T00:51:24.713Z,0
2017-03-03T00:52:24.689Z,0
2017-03-03T00:53:24.876Z,0
2017-03-03T00:54:24.654Z,0
2017-03-03T00:55:24.666Z,0
2017-03-03T00:56:24.629Z,0
2017-03-03T00:57:24.596Z,0
2017-03-03T00:58:24.581Z,0
2017-03-03T00:59:24.584Z,0
2017-03-03T01:00:24.749Z,0
2017-03-03T01:01:24.131Z,0
2017-03-03T01:02:24.495Z,0
2017-03-03T01:03:24.098Z,0
2017-03-03T01:04:24.064Z,0
2017-03-03T01:05:24.429Z,0
2017-03-03T01:06:24.428Z,0
2017-03-03T01:07:24.394Z,0
2017-03-03T01:08:24.372Z,0
2017-03-03T01:09:24.349Z,0
2017-03-03T01:10:24.349Z,0
2017-03-03T01:11:24.316Z,0
2017-03-03T01:12:24.288Z,0
2017-03-03T01:13:24.290Z,0
2017-03-03T01:14:24.265Z,0
2017-03-03T01:15:23.855Z,0
2017-03-03T01:16:24.268Z,0
2017-03-03T01:17:24.222Z,0
2017-03-03T01:18:24.173Z,0
2017-03-03T01:19:24.172Z,0
2017-03-03T01:20:24.154Z,0
2017-03-03T01:21:24.110Z,0
2017-03-03T01:22:24.105Z,0
2017-03-03T01:23:24.078Z,0
2017-03-03T01:24:24.066Z,0
2017-03-03T01:25:24.063Z,0
2017-03-03T01:26:24.021Z,0
2017-03-03T01:27:23.987Z,0
2017-03-03T01:28:23.987Z,0
2017-03-03T01:29:23.959Z,0
2017-03-03T01:30:23.949Z,0
2017-03-03T01:31:23.925Z,0
2017-03-03T01:32:23.893Z,0
2017-03-03T01:33:23.877Z,0
2017-03-03T01:34:23.852Z,0
2017-03-03T01:35:23.850Z,0
2017-03-03T01:36:23.821Z,0
2017-03-03T01:37:23.805Z,0
2017-03-03T01:38:23.797Z,0
2017-03-03T01:39:23.752Z,0
2017-03-03T01:40:23.744Z,0
2017-03-03T01:41:23.732Z,0
2017-03-03T01:42:23.291Z,0
2017-03-03T01:43:23.678Z,0
2017-03-03T01:44:23.654Z,0
2017-03-03T01:45:23.267Z,0
2017-03-03T01:46:23.913Z,0
2017-03-03T01:47:23.208Z,0
2017-03-03T01:48:23.590Z,0
2017-03-03T01:49:23.568Z,0
2017-03-03T01:50:23.549Z,0
2017-03-03T01:51:23.539Z,0
2017-03-03T01:52:23.497Z,0
2017-03-03T01:53:23.479Z,0
2017-03-03T01:54:23.454Z,0
2017-03-03T01:55:23.456Z,0
2017-03-03T01:56:23.014Z,0
2017-03-03T01:57:22.990Z,0
2017-03-03T01:58:23.385Z,0
2017-03-03T01:59:22.972Z,0
2017-03-03T02:00:23.350Z,0
2017-03-03T02:01:22.924Z,0
2017-03-03T02:02:23.297Z,0
2017-03-03T02:03:23.270Z,0
2017-03-03T02:04:23.275Z,0
2017-03-03T02:05:23.231Z,0
2017-03-03T02:06:23.233Z,0
2017-03-03T02:07:23.195Z,0
2017-03-03T02:08:23.192Z,0
2017-03-03T02:09:23.166Z,0
2017-03-03T02:10:23.128Z,0
2017-03-03T02:11:22.726Z,0
2017-03-03T02:12:22.705Z,0
2017-03-03T02:13:23.070Z,0
2017-03-03T02:14:23.055Z,0
2017-03-03T02:15:23.047Z,0
2017-03-03T02:16:22.624Z,0
2017-03-03T02:17:23.002Z,0
2017-03-03T02:18:22.973Z,0
2017-03-03T02:19:22.952Z,0
2017-03-03T02:20:22.553Z,0
2017-03-03T02:21:22.949Z,0
2017-03-03T02:22:22.897Z,0
2017-03-03T02:23:22.880Z,0
2017-03-03T02:24:22.862Z,0
2017-03-03T02:25:22.829Z,0
2017-03-03T02:26:22.809Z,0
2017-03-03T02:27:22.823Z,0
2017-03-03T02:28:22.813Z,0
2017-03-03T02:29:22.759Z,0
2017-03-03T02:30:22.756Z,0
2017-03-03T02:31:22.707Z,0
2017-03-03T02:32:22.698Z,0
2017-03-03T02:33:22.267Z,0
2017-03-03T02:34:22.266Z,0
2017-03-03T02:35:22.641Z,0
2017-03-03T02:36:22.639Z,0
2017-03-03T02:37:22.602Z,0
2017-03-03T02:38:22.567Z,0
2017-03-03T02:39:22.555Z,0
2017-03-03T02:40:22.529Z,0
2017-03-03T02:41:22.526Z,0
2017-03-03T02:42:22.115Z,0
2017-03-03T02:43:22.472Z,0
2017-03-03T02:44:22.466Z,0
2017-03-03T02:45:22.434Z,0
2017-03-03T02:46:22.421Z,0
2017-03-03T02:47:22.388Z,0
2017-03-03T02:48:21.977Z,0
2017-03-03T02:49:21.965Z,0
2017-03-03T02:50:22.340Z,0
2017-03-03T02:51:22.322Z,0
2017-03-03T02:52:22.279Z,0
2017-03-03T02:53:22.467Z,0
2017-03-03T02:54:21.859Z,0
2017-03-03T02:55:22.223Z,0
2017-03-03T02:56:22.212Z,0
2017-03-03T02:57:22.190Z,0
2017-03-03T02:58:21.765Z,0
2017-03-03T02:59:22.142Z,0
2017-03-03T03:00:22.138Z,0
2017-03-03T03:01:22.107Z,0
2017-03-03T03:02:22.098Z,0
2017-03-03T03:03:22.090Z,0
2017-03-03T03:04:22.033Z,0
2017-03-03T03:05:21.616Z,0
2017-03-03T03:06:22.012Z,0
2017-03-03T03:07:21.579Z,0
2017-03-03T03:08:21.567Z,0
2017-03-03T03:09:21.949Z,0
2017-03-03T03:10:21.536Z,0
2017-03-03T03:11:21.500Z,0
2017-03-03T03:12:21.886Z,0
2017-03-03T03:13:21.881Z,0
2017-03-03T03:14:21.884Z,0
2017-03-03T03:15:21.423Z,0
2017-03-03T03:16:21.800Z,0
2017-03-03T03:17:21.796Z,0
2017-03-03T03:18:21.762Z,0
2017-03-03T03:19:21.740Z,0
2017-03-03T03:20:21.723Z,0
2017-03-03T03:21:21.701Z,0
2017-03-03T03:22:21.272Z,0
2017-03-03T03:23:21.666Z,0
2017-03-03T03:24:21.627Z,0
2017-03-03T03:25:21.645Z,0
2017-03-03T03:26:21.216Z,0
2017-03-03T03:27:21.583Z,0
2017-03-03T03:28:21.589Z,0
2017-03-03T03:29:21.553Z,0
2017-03-03T03:30:21.514Z,0
2017-03-03T03:31:21.108Z,0
2017-03-03T03:32:21.089Z,0
2017-03-03T03:33:21.456Z,0
2017-03-03T03:34:21.435Z,0
2017-03-03T03:35:21.410Z,0
2017-03-03T03:36:21.393Z,0
2017-03-03T03:37:21.372Z,0
2017-03-03T03:38:20.952Z,0
2017-03-03T03:39:21.321Z,0
2017-03-03T03:40:21.303Z,0
2017-03-03T03:41:21.301Z,0
2017-03-03T03:42:21.263Z,0
2017-03-03T03:43:21.240Z,0
2017-03-03T03:44:21.235Z,0
2017-03-03T03:45:20.803Z,0
2017-03-03T03:46:20.792Z,0
2017-03-03T03:47:21.190Z,0
2017-03-03T03:48:21.144Z,0
2017-03-03T03:49:21.124Z,0
2017-03-03T03:50:21.101Z,0
2017-03-03T03:51:21.076Z,0
2017-03-03T03:52:21.047Z,0
2017-03-03T03:53:21.024Z,0
2017-03-03T03:54:21.018Z,0
2017-03-03T03:55:20.984Z,0
2017-03-03T03:56:20.988Z,0
2017-03-03T03:57:20.963Z,0
2017-03-03T03:58:20.939Z,0
2017-03-03T03:59:20.925Z,0
2017-03-03T04:00:20.884Z,0
2017-03-03T04:01:20.859Z,0
2017-03-03T04:02:20.866Z,0
2017-03-03T04:03:20.839Z,0
2017-03-03T04:04:20.406Z,0
2017-03-03T04:05:20.791Z,0
2017-03-03T04:06:20.831Z,0
2017-03-03T04:07:20.342Z,0
2017-03-03T04:08:20.311Z,0
2017-03-03T04:09:20.700Z,0
2017-03-03T04:10:20.672Z,0
2017-03-03T04:11:20.650Z,0
2017-03-03T04:12:20.634Z,0
2017-03-03T04:13:20.224Z,0
2017-03-03T04:14:20.190Z,0
2017-03-03T04:15:20.582Z,0
2017-03-03T04:16:20.548Z,0
2017-03-03T04:17:20.134Z,0
2017-03-03T04:18:20.516Z,0
2017-03-03T04:19:20.491Z,0
2017-03-03T04:20:20.460Z,0
2017-03-03T04:21:20.451Z,0
2017-03-03T04:22:20.441Z,0
2017-03-03T04:23:20.408Z,0
2017-03-03T04:24:19.986Z,0
2017-03-03T04:25:19.955Z,0
2017-03-03T04:26:20.328Z,0
2017-03-03T04:27:20.337Z,0
2017-03-03T04:28:20.320Z,0
2017-03-03T04:29:20.282Z,0
2017-03-03T04:30:20.254Z,0
2017-03-03T04:31:19.872Z,0
2017-03-03T04:32:20.244Z,0
2017-03-03T04:33:20.206Z,0
2017-03-03T04:34:20.205Z,0
2017-03-03T04:35:20.165Z,0
2017-03-03T04:36:20.176Z,0
2017-03-03T04:37:20.115Z,0
2017-03-03T04:38:19.703Z,0
2017-03-03T04:39:20.057Z,0
2017-03-03T04:40:20.075Z,0
2017-03-03T04:41:20.014Z,0
2017-03-03T04:42:19.995Z,0
2017-03-03T04:43:19.978Z,0
2017-03-03T04:44:19.959Z,0
2017-03-03T04:45:19.940Z,0
2017-03-03T04:46:19.533Z,0
2017-03-03T04:47:19.892Z,0
2017-03-03T04:48:19.863Z,0
2017-03-03T04:49:19.844Z,0
2017-03-03T04:50:19.870Z,0
2017-03-03T04:51:19.431Z,0
2017-03-03T04:52:19.796Z,0
2017-03-03T04:53:19.769Z,0
2017-03-03T04:54:19.741Z,0
2017-03-03T04:55:19.714Z,0
2017-03-03T04:56:19.307Z,0
2017-03-03T04:57:19.691Z,0
2017-03-03T04:58:19.269Z,0
2017-03-03T04:59:19.630Z,0
2017-03-03T05:00:19.225Z,0
2017-03-03T05:01:19.600Z,0
2017-03-03T05:02:19.580Z,0
2017-03-03T05:03:19.155Z,0
2017-03-03T05:04:19.534Z,0
2017-03-03T05:05:19.504Z,0
2017-03-03T05:06:19.531Z,0
2017-03-03T05:07:19.061Z,0
2017-03-03T05:08:19.450Z,0
2017-03-03T05:09:19.028Z,0
2017-03-03T05:10:19.408Z,0
2017-03-03T05:11:19.379Z,0
2017-03-03T05:12:19.385Z,0
2017-03-03T05:13:19.341Z,0
2017-03-03T05:14:19.335Z,0
2017-03-03T05:15:18.896Z,0
2017-03-03T05:16:19.282Z,0
2017-03-03T05:17:18.860Z,0
2017-03-03T05:18:19.248Z,0
2017-03-03T05:19:19.218Z,0
2017-03-03T05:20:19.194Z,0
2017-03-03T05:21:19.164Z,0
2017-03-03T05:22:19.149Z,0
2017-03-03T05:23:19.145Z,0
2017-03-03T05:24:19.113Z,0
2017-03-03T05:25:19.086Z,0
2017-03-03T05:26:19.067Z,0
2017-03-03T05:27:19.050Z,0
2017-03-03T05:28:18.634Z,0
2017-03-03T05:29:18.610Z,0
2017-03-03T05:30:18.990Z,0
2017-03-03T05:31:18.958Z,0
2017-03-03T05:32:18.949Z,0
2017-03-03T05:33:18.913Z,0
2017-03-03T05:34:18.907Z,0
2017-03-03T05:35:18.884Z,0
2017-03-03T05:36:18.869Z,0
2017-03-03T05:37:18.435Z,0
2017-03-03T05:38:18.823Z,0
2017-03-03T05:39:18.799Z,0
2017-03-03T05:40:18.820Z,0
2017-03-03T05:41:18.783Z,0
2017-03-03T05:42:18.753Z,0
2017-03-03T05:43:18.732Z,4
2017-03-03T05:44:18.313Z,4
2017-03-03T05:45:18.669Z,0
2017-03-03T05:46:18.646Z,4
2017-03-03T05:47:18.643Z,4
2017-03-03T05:48:18.225Z,4
2017-03-03T05:49:18.608Z,8
2017-03-03T05:50:18.559Z,8
2017-03-03T05:51:18.539Z,8
2017-03-03T05:52:18.513Z,8
2017-03-03T05:53:18.516Z,12
2017-03-03T05:54:18.494Z,12
2017-03-03T05:55:18.083Z,16
2017-03-03T05:56:18.039Z,20
2017-03-03T05:57:18.023Z,24
2017-03-03T05:58:18.395Z,32
2017-03-03T05:59:18.384Z,32
2017-03-03T06:00:18.351Z,40
2017-03-03T06:01:18.320Z,44
2017-03-03T06:02:18.298Z,48
2017-03-03T06:03:18.283Z,56
2017-03-03T06:04:18.272Z,64
2017-03-03T06:05:18.250Z,72
2017-03-03T06:06:18.221Z,84
2017-03-03T06:07:18.203Z,88
2017-03-03T06:08:18.202Z,100
2017-03-03T06:09:18.164Z,112
2017-03-03T06:10:17.337Z,124
2017-03-03T06:11:18.127Z,132
2017-03-03T06:12:18.113Z,144
2017-03-03T06:13:18.089Z,160
2017-03-03T06:14:18.055Z,172
2017-03-03T06:15:18.021Z,184
2017-03-03T06:16:18.015Z,204
2017-03-03T06:17:17.992Z,220
2017-03-03T06:18:17.993Z,236
2017-03-03T06:19:17.946Z,256
2017-03-03T06:20:17.921Z,276
2017-03-03T06:21:17.923Z,296
2017-03-03T06:22:17.882Z,316
2017-03-03T06:23:17.861Z,340
2017-03-03T06:24:17.861Z,360
2017-03-03T06:25:17.847Z,384
2017-03-03T06:26:17.795Z,408
2017-03-03T06:27:17.775Z,436
2017-03-03T06:28:17.761Z,460
2017-03-03T06:29:17.338Z,488
2017-03-03T06:30:17.035Z,520
2017-03-03T06:31:17.313Z,548
2017-03-03T06:32:17.683Z,584
2017-03-03T06:33:17.658Z,616
2017-03-03T06:34:17.639Z,652
2017-03-03T06:35:17.222Z,684
2017-03-03T06:36:17.208Z,712
2017-03-03T06:37:17.578Z,736
2017-03-03T06:38:17.142Z,764
2017-03-03T06:39:17.538Z,804
2017-03-03T06:40:17.521Z,836
2017-03-03T06:41:17.483Z,868
2017-03-03T06:42:17.081Z,892
2017-03-03T06:43:17.472Z,928
2017-03-03T06:44:17.446Z,956
2017-03-03T06:45:17.405Z,992
2017-03-03T06:46:17.376Z,1032
2017-03-03T06:47:16.953Z,1072
2017-03-03T06:48:16.941Z,1108
2017-03-03T06:49:16.928Z,1148
2017-03-03T06:50:17.302Z,1192
2017-03-03T06:51:17.295Z,1224
2017-03-03T06:52:17.265Z,1256
2017-03-03T06:53:17.227Z,1292
2017-03-03T06:54:17.403Z,1336
2017-03-03T06:55:16.407Z,1368
2017-03-03T06:56:17.157Z,1400
2017-03-03T06:57:17.164Z,1436
2017-03-03T06:58:17.121Z,1472
2017-03-03T06:59:17.104Z,1504
2017-03-03T07:00:16.684Z,1536
2017-03-03T07:01:16.650Z,1560
2017-03-03T07:02:17.042Z,1592
2017-03-03T07:03:17.034Z,1628
2017-03-03T07:04:17.003Z,1664
2017-03-03T07:05:16.168Z,1696
2017-03-03T07:06:16.976Z,1728
2017-03-03T07:07:16.927Z,1764
2017-03-03T07:08:16.518Z,1800
2017-03-03T07:09:16.487Z,1844
2017-03-03T07:10:16.459Z,1912
2017-03-03T07:11:16.884Z,2004
2017-03-03T07:12:16.837Z,2096
2017-03-03T07:13:16.798Z,2196
2017-03-03T07:14:16.791Z,2352
2017-03-03T07:15:16.368Z,2552
2017-03-03T07:16:16.775Z,2708
2017-03-03T07:17:16.733Z,2836
2017-03-03T07:18:16.707Z,2892
2017-03-03T07:19:16.697Z,2872
2017-03-03T07:20:16.288Z,2820
2017-03-03T07:21:16.682Z,2696
2017-03-03T07:22:16.626Z,2468
2017-03-03T07:23:16.598Z,2316
2017-03-03T07:24:16.618Z,2260
2017-03-03T07:25:16.566Z,2280
2017-03-03T07:26:16.544Z,2352
2017-03-03T07:27:16.527Z,2384
2017-03-03T07:28:16.508Z,2424
2017-03-03T07:29:16.107Z,2456
2017-03-03T07:30:16.473Z,2496
2017-03-03T07:31:16.457Z,2536
2017-03-03T07:32:16.422Z,2568
2017-03-03T07:33:16.029Z,2600
2017-03-03T07:34:16.382Z,2640
2017-03-03T07:35:16.370Z,2680
2017-03-03T07:36:16.014Z,2732
2017-03-03T07:37:15.908Z,2772
2017-03-03T07:38:15.904Z,2832
2017-03-03T07:39:15.477Z,2920
2017-03-03T07:40:16.271Z,3016
2017-03-03T07:41:15.860Z,3128
2017-03-03T07:42:15.844Z,3236
2017-03-03T07:43:16.196Z,3300
2017-03-03T07:44:16.190Z,3348
2017-03-03T07:45:15.762Z,3372
2017-03-03T07:46:15.741Z,3360
2017-03-03T07:47:15.723Z,3340
2017-03-03T07:48:16.110Z,3312
2017-03-03T07:49:16.076Z,3300
2017-03-03T07:50:16.102Z,3292
2017-03-03T07:51:16.046Z,3292
2017-03-03T07:52:16.032Z,3328
2017-03-03T07:53:16.004Z,3364
2017-03-03T07:54:14.778Z,3424
2017-03-03T07:55:15.582Z,3544
2017-03-03T07:56:15.555Z,3692
2017-03-03T07:57:15.947Z,3820
2017-03-03T07:58:15.908Z,3916
2017-03-03T07:59:15.901Z,4012
2017-03-03T08:00:15.876Z,4084
2017-03-03T08:01:15.459Z,4148
2017-03-03T08:02:15.838Z,4232
2017-03-03T08:03:15.814Z,4312
2017-03-03T08:04:15.415Z,4388
2017-03-03T08:05:15.781Z,4456
2017-03-03T08:06:15.359Z,4504
2017-03-03T08:07:15.358Z,4608
2017-03-03T08:08:15.729Z,4688
2017-03-03T08:09:15.707Z,4780
2017-03-03T08:10:15.704Z,4876
2017-03-03T08:11:15.666Z,4976
2017-03-03T08:12:15.654Z,5032
2017-03-03T08:13:15.620Z,5080
2017-03-03T08:14:15.629Z,5216
2017-03-03T08:15:15.196Z,5372
2017-03-03T08:16:15.183Z,5400
2017-03-03T08:17:15.553Z,5460
2017-03-03T08:18:15.153Z,5444
2017-03-03T08:19:15.505Z,5268
2017-03-03T08:20:15.105Z,5232
2017-03-03T08:21:15.510Z,5312
2017-03-03T08:22:15.456Z,5256
2017-03-03T08:23:15.039Z,5284
2017-03-03T08:24:15.017Z,5484
2017-03-03T08:25:14.612Z,6232
2017-03-03T08:26:15.386Z,7044
2017-03-03T08:27:15.369Z,6560
2017-03-03T08:28:14.966Z,7288
2017-03-03T08:29:15.331Z,9652
2017-03-03T08:30:15.322Z,11848
2017-03-03T08:31:15.320Z,11160
2017-03-03T08:32:15.279Z,15620
2017-03-03T08:33:15.280Z,15884
2017-03-03T08:34:15.260Z,16224
2017-03-03T08:35:15.248Z,16032
2017-03-03T08:36:15.231Z,15936
2017-03-03T08:37:15.220Z,16256
2017-03-03T08:38:15.185Z,15424
2017-03-03T08:39:14.777Z,16352
2017-03-03T08:40:15.186Z,14908
2017-03-03T08:41:15.146Z,16288
2017-03-03T08:42:15.130Z,12368
2017-03-03T08:43:15.109Z,12388
2017-03-03T08:44:15.115Z,11888
2017-03-03T08:45:15.096Z,12320
2017-03-03T08:46:14.678Z,9320
2017-03-03T08:47:15.063Z,10072
2017-03-03T08:48:15.059Z,11492
2017-03-03T08:49:14.643Z,12136
2017-03-03T08:50:15.035Z,11812
2017-03-03T08:51:15.022Z,12008
2017-03-03T08:52:15.006Z,12216
2017-03-03T08:53:14.985Z,14444
2017-03-03T08:54:15.171Z,14264
2017-03-03T08:55:14.578Z,13280
2017-03-03T08:56:14.954Z,13988
2017-03-03T08:57:14.555Z,12512
2017-03-03T08:58:14.526Z,12188
2017-03-03T08:59:14.923Z,14908
2017-03-03T09:00:14.888Z,12184
2017-03-03T09:01:14.871Z,12700
2017-03-03T09:02:14.477Z,14776
2017-03-03T09:03:14.474Z,14180
2017-03-03T09:04:14.866Z,13464
2017-03-03T09:05:14.820Z,13572
2017-03-03T09:06:14.015Z,13052
2017-03-03T09:07:14.808Z,14080
2017-03-03T09:08:14.809Z,13956
2017-03-03T09:09:14.933Z,13916
2017-03-03T09:10:14.773Z,14576
2017-03-03T09:11:14.752Z,13616
2017-03-03T09:12:14.746Z,13420
2017-03-03T09:13:14.747Z,13728
2017-03-03T09:14:13.912Z,13876
2017-03-03T09:15:14.314Z,12120
2017-03-03T09:16:14.293Z,11904
2017-03-03T09:17:14.680Z,11204
2017-03-03T09:18:14.665Z,10848
2017-03-03T09:19:14.667Z,10804
2017-03-03T09:20:14.641Z,11012
2017-03-03T09:21:14.242Z,10640
2017-03-03T09:22:14.625Z,10540
2017-03-03T09:23:14.614Z,10560
2017-03-03T09:24:14.588Z,10492
2017-03-03T09:25:14.583Z,10680
2017-03-03T09:26:14.570Z,10856
2017-03-03T09:27:14.876Z,10804
2017-03-03T09:28:14.198Z,11488
2017-03-03T09:29:14.545Z,10500
2017-03-03T09:30:14.523Z,9900
2017-03-03T09:31:14.521Z,9372
2017-03-03T09:32:14.502Z,9180
2017-03-03T09:33:14.502Z,9164
2017-03-03T09:34:14.485Z,9140
2017-03-03T09:35:14.457Z,9128
2017-03-03T09:36:14.434Z,9320
2017-03-03T09:37:14.461Z,9388
2017-03-03T09:38:14.419Z,9864
2017-03-03T09:39:14.434Z,10100
2017-03-03T09:40:13.997Z,10620
2017-03-03T09:41:14.397Z,10832
2017-03-03T09:42:13.569Z,11036
2017-03-03T09:43:13.971Z,11256
2017-03-03T09:44:14.344Z,11292
2017-03-03T09:45:13.914Z,12376
2017-03-03T09:46:14.306Z,13820
2017-03-03T09:47:14.289Z,13684
2017-03-03T09:48:14.288Z,13796
2017-03-03T09:49:13.873Z,13996
2017-03-03T09:50:14.268Z,13808
2017-03-03T09:51:14.262Z,13624
2017-03-03T09:52:13.870Z,14060
2017-03-03T09:53:14.214Z,18592
2017-03-03T09:54:14.219Z,18816
2017-03-03T09:55:14.193Z,17696
2017-03-03T09:56:13.797Z,17088
2017-03-03T09:57:13.761Z,17568
2017-03-03T09:58:13.758Z,15172
2017-03-03T09:59:14.153Z,14380
2017-03-03T10:00:13.728Z,14248
2017-03-03T10:01:13.711Z,14016
2017-03-03T10:02:14.122Z,13480
2017-03-03T10:03:14.076Z,13916
2017-03-03T10:04:13.667Z,15940
2017-03-03T10:05:13.671Z,16104
2017-03-03T10:06:14.052Z,14564
2017-03-03T10:07:14.057Z,13956
2017-03-03T10:08:13.633Z,14992
2017-03-03T10:09:14.009Z,18464
2017-03-03T10:10:13.612Z,19744
2017-03-03T10:11:13.582Z,17152
2017-03-03T10:12:13.978Z,16928
2017-03-03T10:13:13.563Z,17344
2017-03-03T10:14:13.542Z,17376
2017-03-03T10:15:13.937Z,18432
2017-03-03T10:16:13.534Z,17248
2017-03-03T10:17:13.918Z,14460
2017-03-03T10:18:13.906Z,15196
2017-03-03T10:19:13.897Z,16864
2017-03-03T10:20:13.881Z,15848
2017-03-03T10:21:13.875Z,15856
2017-03-03T10:22:13.867Z,19104
2017-03-03T10:23:13.839Z,19488
2017-03-03T10:24:13.444Z,20480
2017-03-03T10:25:13.834Z,21024
2017-03-03T10:26:13.419Z,22336
2017-03-03T10:27:13.449Z,23936
2017-03-03T10:28:13.414Z,26688
2017-03-03T10:29:13.777Z,26080
2017-03-03T10:30:13.844Z,27136
2017-03-03T10:31:13.383Z,25376
2017-03-03T10:32:13.748Z,25088
2017-03-03T10:33:13.347Z,23232
2017-03-03T10:34:13.338Z,24576
2017-03-03T10:35:13.707Z,24320
2017-03-03T10:36:13.689Z,25376
2017-03-03T10:37:13.280Z,22816
2017-03-03T10:38:13.663Z,21856
2017-03-03T10:39:13.341Z,20160
2017-03-03T10:40:13.664Z,17824
2017-03-03T10:41:13.246Z,18112
2017-03-03T10:42:13.626Z,17088
2017-03-03T10:43:13.612Z,16052
2017-03-03T10:44:13.619Z,16704
2017-03-03T10:45:13.718Z,16440
2017-03-03T10:46:13.595Z,15348
2017-03-03T10:47:13.588Z,15216
2017-03-03T10:48:13.571Z,15356
2017-03-03T10:49:13.557Z,15088
2017-03-03T10:50:13.526Z,15072
2017-03-03T10:51:13.198Z,15356
2017-03-03T10:52:13.533Z,15888
2017-03-03T10:53:13.537Z,16156
2017-03-03T10:54:13.703Z,17312
2017-03-03T10:55:13.110Z,18112
2017-03-03T10:56:13.076Z,18432
2017-03-03T10:57:13.460Z,18240
2017-03-03T10:58:13.475Z,17504
2017-03-03T10:59:13.445Z,17152
2017-03-03T11:00:13.036Z,16144
2017-03-03T11:01:13.426Z,15280
2017-03-03T11:02:13.006Z,14660
2017-03-03T11:03:13.399Z,13860
2017-03-03T11:04:13.384Z,13156
2017-03-03T11:05:13.433Z,12516
2017-03-03T11:06:13.355Z,12104
2017-03-03T11:07:13.349Z,11832
2017-03-03T11:08:13.324Z,11640
2017-03-03T11:09:13.350Z,11372
2017-03-03T11:10:13.315Z,11196
2017-03-03T11:11:13.305Z,10988
2017-03-03T11:12:13.292Z,10796
2017-03-03T11:13:13.296Z,10804
2017-03-03T11:14:12.864Z,10900
2017-03-03T11:15:13.248Z,10972
2017-03-03T11:16:13.241Z,10972
2017-03-03T11:17:13.247Z,10980
2017-03-03T11:18:12.809Z,10920
2017-03-03T11:19:12.799Z,10920
2017-03-03T11:20:13.193Z,10868
2017-03-03T11:21:13.179Z,10772
2017-03-03T11:22:12.361Z,10556
2017-03-03T11:23:13.143Z,10144
2017-03-03T11:24:12.754Z,9756
2017-03-03T11:25:12.725Z,9408
2017-03-03T11:26:13.118Z,9220
2017-03-03T11:27:13.102Z,9196
2017-03-03T11:28:12.693Z,9300
2017-03-03T11:29:13.083Z,9444
2017-03-03T11:30:13.074Z,9584
2017-03-03T11:31:12.670Z,9856
2017-03-03T11:32:12.246Z,10340
2017-03-03T11:33:13.038Z,10612
2017-03-03T11:34:12.211Z,10736
2017-03-03T11:35:13.014Z,10688
2017-03-03T11:36:12.201Z,10636
2017-03-03T11:37:12.570Z,10812
2017-03-03T11:38:12.962Z,11160
2017-03-03T11:39:12.973Z,11532
2017-03-03T11:40:12.582Z,11724
2017-03-03T11:41:12.925Z,12296
2017-03-03T11:42:12.124Z,13488
2017-03-03T11:43:12.515Z,15892
2017-03-03T11:44:12.886Z,21024
2017-03-03T11:45:12.476Z,33472
2017-03-03T11:46:12.856Z,44512
2017-03-03T11:47:12.477Z,50368
2017-03-03T11:48:12.848Z,40224
2017-03-03T11:49:12.830Z,37664
2017-03-03T11:50:12.824Z,35904
2017-03-03T11:51:12.818Z,38592
2017-03-03T11:52:12.405Z,34688
2017-03-03T11:53:12.770Z,35904
2017-03-03T11:54:12.781Z,35456
2017-03-03T11:55:12.756Z,36416
2017-03-03T11:56:12.772Z,33888
2017-03-03T11:57:12.346Z,32160
2017-03-03T11:58:12.342Z,34592
2017-03-03T11:59:12.758Z,34560
2017-03-03T12:00:12.332Z,35328
2017-03-03T12:01:12.319Z,38080
2017-03-03T12:02:11.552Z,37248
2017-03-03T12:03:12.718Z,39456
2017-03-03T12:04:12.307Z,38176
2017-03-03T12:05:12.697Z,34720
2017-03-03T12:06:12.688Z,35488
2017-03-03T12:07:12.677Z,37792
2017-03-03T12:08:12.689Z,40416
2017-03-03T12:09:12.674Z,28480
2017-03-03T12:10:12.675Z,25216
2017-03-03T12:11:12.674Z,22240
2017-03-03T12:12:12.269Z,23104
2017-03-03T12:13:12.647Z,21024
2017-03-03T12:14:12.658Z,19392
2017-03-03T12:15:12.678Z,18176
2017-03-03T12:16:12.639Z,17312
2017-03-03T12:17:12.639Z,17056
2017-03-03T12:18:12.620Z,17056
2017-03-03T12:19:12.639Z,17792
2017-03-03T12:20:12.630Z,21760
2017-03-03T12:21:12.606Z,22112
2017-03-03T12:22:12.604Z,27168
2017-03-03T12:23:12.190Z,32992
2017-03-03T12:24:12.612Z,23008
2017-03-03T12:25:12.593Z,20992
2017-03-03T12:26:12.204Z,19808
2017-03-03T12:27:12.579Z,18016
2017-03-03T12:28:12.573Z,17824
2017-03-03T12:29:12.585Z,15376
2017-03-03T12:30:11.757Z,14012
2017-03-03T12:31:12.542Z,13208
2017-03-03T12:32:12.545Z,13032
2017-03-03T12:33:12.544Z,12780
2017-03-03T12:34:12.563Z,12036
2017-03-03T12:35:12.130Z,11056
2017-03-03T12:36:12.520Z,10164
2017-03-03T12:37:12.508Z,9712
2017-03-03T12:38:12.106Z,9640
2017-03-03T12:39:12.501Z,9512
2017-03-03T12:40:12.507Z,9256
2017-03-03T12:41:11.689Z,8916
2017-03-03T12:42:12.480Z,8308
2017-03-03T12:43:12.515Z,7772
2017-03-03T12:44:12.468Z,7356
2017-03-03T12:45:12.042Z,6932
2017-03-03T12:46:12.040Z,6708
2017-03-03T12:47:12.440Z,6680
2017-03-03T12:48:12.417Z,7008
2017-03-03T12:49:12.021Z,7320
2017-03-03T12:50:11.987Z,7224
2017-03-03T12:51:11.978Z,6956
2017-03-03T12:52:12.393Z,6756
2017-03-03T12:53:11.968Z,6684
2017-03-03T12:54:12.755Z,6820
2017-03-03T12:55:12.337Z,7116
2017-03-03T12:56:11.935Z,7404
2017-03-03T12:57:11.925Z,7720
2017-03-03T12:58:12.310Z,8556
2017-03-03T12:59:12.350Z,9784
2017-03-03T13:00:11.086Z,10812
2017-03-03T13:01:11.958Z,10924
2017-03-03T13:02:12.333Z,10576
2017-03-03T13:03:12.461Z,10112
2017-03-03T13:04:12.260Z,9280
2017-03-03T13:05:12.252Z,8544
2017-03-03T13:06:12.249Z,7984
2017-03-03T13:07:12.234Z,7816
2017-03-03T13:08:12.215Z,7808
2017-03-03T13:09:12.189Z,7632
2017-03-03T13:10:12.203Z,7500
2017-03-03T13:11:12.167Z,7560
2017-03-03T13:12:11.781Z,7560
2017-03-03T13:13:12.155Z,7640
2017-03-03T13:14:12.144Z,7988
2017-03-03T13:15:12.158Z,8512
2017-03-03T13:16:12.120Z,9008
2017-03-03T13:17:12.128Z,9484
2017-03-03T13:18:11.738Z,9408
2017-03-03T13:19:11.718Z,8948
2017-03-03T13:20:12.085Z,8380
2017-03-03T13:21:12.054Z,8056
2017-03-03T13:22:11.681Z,7968
2017-03-03T13:23:12.037Z,7948
2017-03-03T13:24:12.028Z,7992
2017-03-03T13:25:12.018Z,8300
2017-03-03T13:26:11.604Z,8624
2017-03-03T13:27:11.982Z,8736
2017-03-03T13:28:11.576Z,8644
2017-03-03T13:29:12.012Z,8156
2017-03-03T13:30:11.961Z,7688
2017-03-03T13:31:11.950Z,7464
2017-03-03T13:32:11.544Z,7376
2017-03-03T13:33:11.920Z,7300
2017-03-03T13:34:11.513Z,7172
2017-03-03T13:35:11.914Z,7028
2017-03-03T13:36:11.907Z,6856
2017-03-03T13:37:11.873Z,6788
2017-03-03T13:38:11.870Z,6788
2017-03-03T13:39:11.859Z,6704
2017-03-03T13:40:11.860Z,6756
2017-03-03T13:41:11.821Z,6976
2017-03-03T13:42:11.434Z,7292
2017-03-03T13:43:11.418Z,7740
2017-03-03T13:44:11.799Z,8200
2017-03-03T13:45:11.798Z,8584
2017-03-03T13:46:11.396Z,9240
2017-03-03T13:47:11.769Z,10008
2017-03-03T13:48:11.747Z,11148